Time;durP1;ratioP1;P1;durP2;ratioP2;P2;SDS_P1;SDS_P2;PMS_P1;PMS_P2;Temp;Humidity;BMP_temperature;BMP_pressure;BME280_temperature;BME280_humidity;BME280_pressure;Samples;Min_cycle;Max_cycle;Signal;HPM_P1;HPM_P2
2022/11/26 06:09:42;;;;;;;1.55;1.10;;;;;;;2.17;84.84;99830.52;1870076;76;22745;-39
2022/11/26 06:12:09;;;;;;;1.47;0.95;;;;;;;2.27;84.04;99828.77;1823840;78;20981;-39
2022/11/26 06:14:38;;;;;;;1.60;1.30;;;;;;;2.27;84.21;99829.56;1822009;78;22041;-39
2022/11/26 06:17:05;;;;;;;1.62;1.40;;;;;;;2.31;84.10;99828.43;1822037;78;20943;-38
2022/11/26 06:19:32;;;;;;;2.70;1.95;;;;;;;2.37;83.79;99829.37;1822034;78;20923;-38
2022/11/26 06:21:58;;;;;;;2.92;2.42;;;;;;;2.45;83.07;99834.61;1821959;78;20954;-38
2022/11/26 06:24:26;;;;;;;2.58;1.70;;;;;;;2.50;82.43;99835.86;1821852;78;20923;-39
2022/11/26 06:26:52;;;;;;;1.90;1.80;;;;;;;2.54;82.28;99835.52;1821906;78;23165;-38
2022/11/26 06:29:19;;;;;;;1.50;1.40;;;;;;;2.57;82.18;99843.73;1821623;78;21544;-39
2022/11/26 06:31:46;;;;;;;1.70;1.60;;;;;;;2.60;81.58;99842.38;1821941;78;21913;-39
2022/11/26 06:34:15;;;;;;;1.20;1.00;;;;;;;2.59;81.14;99842.12;1822013;78;21077;-39
2022/11/26 06:36:43;;;;;;;1.30;1.20;;;;;;;2.69;80.71;99847.30;1822025;78;21558;-39
2022/11/26 06:39:10;;;;;;;1.37;1.00;;;;;;;2.76;80.22;99850.36;1822112;78;21899;-38
2022/11/26 06:41:37;;;;;;;1.45;1.30;;;;;;;2.78;79.98;99849.53;1821979;78;21590;-38
2022/11/26 06:44:03;;;;;;;1.72;1.30;;;;;;;2.77;79.74;99852.50;1821977;78;21018;-39
2022/11/26 06:46:33;;;;;;;2.05;1.55;;;;;;;2.77;79.38;99853.30;1821950;78;20954;-39
2022/11/26 06:49:03;;;;;;;1.80;1.70;;;;;;;2.74;79.10;99855.23;1822171;78;21069;-39
2022/11/26 06:51:31;;;;;;;1.70;1.60;;;;;;;2.77;78.53;99861.87;1822203;78;21165;-39
2022/11/26 06:53:58;;;;;;;1.37;1.25;;;;;;;2.79;78.54;99861.84;1821976;78;21005;-39
2022/11/26 06:56:25;;;;;;;1.55;1.05;;;;;;;2.82;78.46;99864.45;1821926;78;20989;-39
2022/11/26 06:58:53;;;;;;;2.05;1.52;;;;;;;2.84;78.46;99871.12;1821913;78;21548;-38
2022/11/26 07:01:23;;;;;;;1.42;1.30;;;;;;;2.86;78.24;99874.82;1822538;78;20998;-38
2022/11/26 07:03:50;;;;;;;1.55;1.17;;;;;;;2.91;77.98;99873.39;1822153;78;22108;-38
2022/11/26 07:06:26;;;;;;;1.40;1.30;;;;;;;3.00;77.65;99879.67;1821978;78;21006;-39
2022/11/26 07:08:55;;;;;;;1.80;1.40;;;;;;;3.04;77.38;99877.45;1821749;78;20994;-39
2022/11/26 07:11:22;;;;;;;2.00;1.72;;;;;;;3.06;77.22;99879.80;1822172;78;20966;-39
2022/11/26 07:13:48;;;;;;;1.62;1.35;;;;;;;3.09;77.24;99883.79;1822020;78;21069;-39
2022/11/26 07:16:15;;;;;;;2.72;2.12;;;;;;;3.11;76.98;99879.71;1821895;78;21141;-39
2022/11/26 07:18:48;;;;;;;2.65;1.57;;;;;;;3.17;76.69;99889.25;1821909;78;20954;-39
2022/11/26 07:21:15;;;;;;;2.58;1.80;;;;;;;3.24;76.35;99884.84;1821291;78;21005;-39
2022/11/26 07:23:43;;;;;;;2.12;1.75;;;;;;;3.24;76.03;99877.60;1821608;78;21563;-39
2022/11/26 07:26:10;;;;;;;3.87;1.92;;;;;;;3.24;76.06;99890.20;1821404;78;21022;-39
2022/11/26 07:28:37;;;;;;;2.85;2.30;;;;;;;3.22;75.87;99886.47;1821309;78;22113;-39
2022/11/26 07:31:09;;;;;;;1.72;1.60;;;;;;;3.20;75.76;99890.52;1821354;78;21013;-39
2022/11/26 07:33:36;;;;;;;4.00;2.60;;;;;;;3.20;75.55;99894.54;1820348;78;20924;-38
2022/11/26 07:36:06;;;;;;;3.00;2.00;;;;;;;3.25;75.32;99891.22;1821293;78;20946;-39
2022/11/26 07:38:34;;;;;;;3.95;2.65;;;;;;;3.25;75.07;99895.78;1815433;78;21113;-39
2022/11/26 07:41:04;;;;;;;3.15;2.10;;;;;;;3.18;75.15;99896.73;1821398;78;21248;-39
2022/11/26 07:43:36;;;;;;;2.55;2.05;;;;;;;3.13;75.36;99895.49;1821044;78;20891;-39
2022/11/26 07:46:05;;;;;;;1.87;1.40;;;;;;;3.13;75.49;99896.30;1821287;78;20910;-39
2022/11/26 07:48:33;;;;;;;0.88;0.88;;;;;;;3.19;75.28;99901.02;1821454;78;20926;-39
2022/11/26 07:51:01;;;;;;;1.82;1.60;;;;;;;3.25;74.95;99901.14;1821401;78;21563;-39
2022/11/26 07:53:30;;;;;;;1.90;1.60;;;;;;;3.24;74.65;99895.56;1821795;78;20923;-39
2022/11/26 07:55:57;;;;;;;1.50;1.40;;;;;;;3.16;75.00;99898.91;1821070;78;20927;-39
2022/11/26 07:58:25;;;;;;;2.00;1.70;;;;;;;3.13;75.14;99902.19;1821281;78;21002;-39
2022/11/26 08:00:52;;;;;;;2.45;1.82;;;;;;;3.09;75.05;99902.54;1821473;78;21551;-39
2022/11/26 08:03:19;;;;;;;2.62;2.05;;;;;;;3.03;75.06;99910.67;1821454;78;20969;-39
2022/11/26 08:05:46;;;;;;;1.60;1.40;;;;;;;3.00;75.20;99903.20;1821514;78;21329;-39
2022/11/26 08:08:13;;;;;;;1.40;1.30;;;;;;;3.04;75.20;99912.27;1821217;78;20962;-39
2022/11/26 08:10:40;;;;;;;2.80;1.72;;;;;;;3.07;75.36;99908.19;1821490;78;20978;-39
2022/11/26 08:13:08;;;;;;;2.12;1.85;;;;;;;3.11;75.44;99905.70;1821243;78;21001;-39
2022/11/26 08:15:36;;;;;;;1.90;1.50;;;;;;;3.10;75.26;99906.24;1821383;78;20965;-39
2022/11/26 08:18:03;;;;;;;1.72;1.52;;;;;;;3.06;75.27;99910.06;1821348;78;21269;-38
2022/11/26 08:20:31;;;;;;;2.27;1.40;;;;;;;3.10;75.21;99908.92;1821219;78;20994;-38
2022/11/26 08:22:57;;;;;;;1.60;1.50;;;;;;;3.18;75.15;99910.14;1821409;78;20923;-39
2022/11/26 08:25:24;;;;;;;3.20;2.35;;;;;;;3.23;74.99;99912.72;1821184;78;21013;-38
2022/11/26 08:27:51;;;;;;;2.65;1.90;;;;;;;3.24;74.94;99908.95;1821110;78;21006;-38
2022/11/26 08:30:19;;;;;;;2.00;1.80;;;;;;;3.20;74.72;99914.09;1821195;78;23183;-38
2022/11/26 08:32:46;;;;;;;2.25;1.98;;;;;;;3.13;74.80;99912.36;1821306;78;21005;-39
2022/11/26 08:35:15;;;;;;;2.42;1.60;;;;;;;3.09;74.91;99910.58;1821189;78;21002;-39
2022/11/26 08:37:42;;;;;;;1.60;1.50;;;;;;;3.10;74.90;99918.30;1821171;78;21427;-39
2022/11/26 08:40:10;;;;;;;1.82;1.52;;;;;;;3.20;74.82;99918.66;1821151;78;21535;-39
2022/11/26 08:42:37;;;;;;;2.25;1.62;;;;;;;3.25;74.75;99924.72;1821245;78;21223;-39
2022/11/26 08:45:05;;;;;;;1.95;1.75;;;;;;;3.21;74.43;99922.92;1821307;78;20998;-39
2022/11/26 08:47:32;;;;;;;2.08;1.82;;;;;;;3.14;74.81;99922.00;1821239;78;20954;-39
2022/11/26 08:50:00;;;;;;;2.45;1.70;;;;;;;3.15;75.04;99925.47;1821316;78;20958;-39
2022/11/26 08:52:27;;;;;;;1.87;1.67;;;;;;;3.21;74.88;99924.27;1821335;78;21054;-39
2022/11/26 08:54:54;;;;;;;1.40;1.30;;;;;;;3.27;74.45;99921.75;1821252;78;21083;-39
2022/11/26 08:57:22;;;;;;;1.40;1.30;;;;;;;3.27;74.44;99919.86;1821533;78;21484;-39
2022/11/26 08:59:50;;;;;;;1.70;1.47;;;;;;;3.25;74.49;99925.25;1821310;78;20969;-39
2022/11/26 09:02:17;;;;;;;2.10;1.85;;;;;;;3.24;74.58;99921.02;1821246;78;21451;-39
2022/11/26 09:04:44;;;;;;;2.10;1.70;;;;;;;3.23;74.60;99926.12;1821288;78;20946;-38
2022/11/26 09:07:11;;;;;;;1.92;1.50;;;;;;;3.24;74.64;99925.83;1821367;78;21236;-39
2022/11/26 09:09:37;;;;;;;1.62;1.52;;;;;;;3.25;74.52;99930.07;1821139;78;21036;-39
2022/11/26 09:12:05;;;;;;;2.33;1.60;;;;;;;3.32;74.39;99932.37;1821410;78;20915;-39
2022/11/26 09:14:37;;;;;;;2.72;1.60;;;;;;;3.39;74.48;99925.51;1821181;78;21653;-39
2022/11/26 09:17:04;;;;;;;1.65;1.55;;;;;;;3.43;74.37;99924.39;1821356;78;21306;-39
2022/11/26 09:19:31;;;;;;;2.25;1.82;;;;;;;3.45;74.25;99928.89;1821182;78;23166;-39
2022/11/26 09:21:58;;;;;;;2.20;2.00;;;;;;;3.47;74.20;99930.73;1821402;78;21006;-39
2022/11/26 09:24:25;;;;;;;2.25;1.72;;;;;;;3.47;74.03;99932.08;1821398;78;20926;-39
2022/11/26 09:26:52;;;;;;;2.12;1.70;;;;;;;3.47;73.67;99928.86;1821394;78;20954;-39
2022/11/26 09:29:21;;;;;;;1.77;1.67;;;;;;;3.50;73.56;99935.49;1821270;78;21061;-39
2022/11/26 09:31:48;;;;;;;2.12;1.87;;;;;;;3.54;73.53;99935.68;1821286;78;21220;-39
2022/11/26 09:34:15;;;;;;;2.65;1.98;;;;;;;3.52;73.59;99936.55;1821187;78;21006;-39
2022/11/26 09:36:41;;;;;;;2.42;1.98;;;;;;;3.52;73.63;99940.02;1821233;78;21464;-39
2022/11/26 09:39:10;;;;;;;2.62;2.08;;;;;;;3.50;73.48;99942.98;1821291;78;21785;-39
2022/11/26 09:41:54;;;;;;;2.00;1.77;;;;;;;3.45;73.48;99947.65;1789650;78;21084;-39
2022/11/26 09:45:03;;;;;;;1.90;1.60;;;;;;;3.44;73.20;99950.08;1821265;78;21136;-38
2022/11/26 09:47:40;;;;;;;1.50;1.32;;;;;;;3.39;73.17;99946.16;1821242;78;21010;-39
2022/11/26 09:50:19;;;;;;;2.00;1.80;;;;;;;3.34;73.74;99958.34;1820889;78;20961;-39
2022/11/26 09:52:59;;;;;;;1.72;1.62;;;;;;;3.34;74.00;99955.66;1821332;78;20981;-38
2022/11/26 09:55:31;;;;;;;1.67;1.57;;;;;;;3.31;73.73;99959.70;1789472;78;21002;-38
2022/11/26 09:58:15;;;;;;;1.75;1.60;;;;;;;3.22;73.91;99962.83;1821338;78;21135;-39
2022/11/26 10:00:45;;;;;;;1.80;1.65;;;;;;;3.21;74.02;99965.25;1816216;78;21013;-39
2022/11/26 23:53:09;;;;;;;5.05;4.55;;;;;;;1.69;84.95;100378.39;1823053;78;22166;-38
2022/11/26 23:55:36;;;;;;;5.20;4.70;;;;;;;1.78;84.13;100382.08;1791543;79;21034;-38
2022/11/26 23:58:05;;;;;;;6.20;4.90;;;;;;;1.74;83.83;100383.14;1797702;79;23139;-38
